sensor_id;sensor_type;location;lat;lon;timestamp;temperature;humidity
34135;DHT22;20410;55.578;12.968;2023-04-15T00:01:29;8.60;87.10
34135;DHT22;20410;55.578;12.968;2023-04-15T00:03:58;8.60;85.40
34135;DHT22;20410;55.578;12.968;2023-04-15T00:06:23;8.60;90.40
34135;DHT22;20410;55.578;12.968;2023-04-15T00:08:49;8.60;89.70
34135;DHT22;20410;55.578;12.968;2023-04-15T00:11:17;8.60;90.20
34135;DHT22;20410;55.578;12.968;2023-04-15T00:13:44;8.60;86.20
34135;DHT22;20410;55.578;12.968;2023-04-15T00:16:10;8.60;85.70
34135;DHT22;20410;55.578;12.968;2023-04-15T00:18:36;8.60;84.80
34135;DHT22;20410;55.578;12.968;2023-04-15T00:21:03;8.60;80.70
34135;DHT22;20410;55.578;12.968;2023-04-15T00:23:29;8.60;80.80
34135;DHT22;20410;55.578;12.968;2023-04-15T00:25:55;8.60;81.20
34135;DHT22;20410;55.578;12.968;2023-04-15T00:28:20;8.50;84.80
34135;DHT22;20410;55.578;12.968;2023-04-15T00:30:46;8.50;83.90
34135;DHT22;20410;55.578;12.968;2023-04-15T00:33:12;8.50;84.90
34135;DHT22;20410;55.578;12.968;2023-04-15T00:35:38;8.50;85.60
34135;DHT22;20410;55.578;12.968;2023-04-15T00:38:05;8.50;86.30
34135;DHT22;20410;55.578;12.968;2023-04-15T00:40:34;8.50;86.30
34135;DHT22;20410;55.578;12.968;2023-04-15T00:43:00;8.50;84.00
34135;DHT22;20410;55.578;12.968;2023-04-15T00:45:26;8.50;81.60
34135;DHT22;20410;55.578;12.968;2023-04-15T00:47:55;8.50;81.50
34135;DHT22;20410;55.578;12.968;2023-04-15T00:50:21;8.50;82.90
34135;DHT22;20410;55.578;12.968;2023-04-15T00:52:46;8.50;80.60
34135;DHT22;20410;55.578;12.968;2023-04-15T00:55:12;8.40;82.30
34135;DHT22;20410;55.578;12.968;2023-04-15T00:57:38;8.40;83.60
34135;DHT22;20410;55.578;12.968;2023-04-15T01:00:05;8.40;82.60
34135;DHT22;20410;55.578;12.968;2023-04-15T01:02:33;8.40;85.20
34135;DHT22;20410;55.578;12.968;2023-04-15T01:04:59;8.40;84.80
34135;DHT22;20410;55.578;12.968;2023-04-15T01:07:24;8.40;86.40
34135;DHT22;20410;55.578;12.968;2023-04-15T01:09:50;8.40;85.60
34135;DHT22;20410;55.578;12.968;2023-04-15T01:12:16;8.40;81.80
34135;DHT22;20410;55.578;12.968;2023-04-15T01:14:42;8.40;81.10
34135;DHT22;20410;55.578;12.968;2023-04-15T01:17:08;8.40;81.10
34135;DHT22;20410;55.578;12.968;2023-04-15T01:19:35;8.40;82.40
34135;DHT22;20410;55.578;12.968;2023-04-15T01:22:02;8.30;83.90
34135;DHT22;20410;55.578;12.968;2023-04-15T01:24:29;8.40;89.20
34135;DHT22;20410;55.578;12.968;2023-04-15T01:26:56;8.40;83.20
34135;DHT22;20410;55.578;12.968;2023-04-15T01:29:21;8.40;81.60
34135;DHT22;20410;55.578;12.968;2023-04-15T01:31:51;8.30;82.20
34135;DHT22;20410;55.578;12.968;2023-04-15T01:34:17;8.30;84.10
34135;DHT22;20410;55.578;12.968;2023-04-15T01:36:43;8.30;88.10
34135;DHT22;20410;55.578;12.968;2023-04-15T01:39:08;8.30;87.50
34135;DHT22;20410;55.578;12.968;2023-04-15T01:41:34;8.30;84.70
34135;DHT22;20410;55.578;12.968;2023-04-15T01:44:00;8.30;85.60
34135;DHT22;20410;55.578;12.968;2023-04-15T01:46:26;8.30;86.10
34135;DHT22;20410;55.578;12.968;2023-04-15T01:48:51;8.30;81.30
34135;DHT22;20410;55.578;12.968;2023-04-15T01:51:17;8.30;82.20
34135;DHT22;20410;55.578;12.968;2023-04-15T01:53:43;8.30;83.30
34135;DHT22;20410;55.578;12.968;2023-04-15T01:56:08;8.30;82.50
34135;DHT22;20410;55.578;12.968;2023-04-15T01:58:34;8.30;83.10
34135;DHT22;20410;55.578;12.968;2023-04-15T02:00:59;8.30;84.50
34135;DHT22;20410;55.578;12.968;2023-04-15T02:03:25;8.30;84.10
34135;DHT22;20410;55.578;12.968;2023-04-15T02:05:51;8.20;83.80
34135;DHT22;20410;55.578;12.968;2023-04-15T02:08:17;8.20;85.10
34135;DHT22;20410;55.578;12.968;2023-04-15T02:10:43;8.20;83.20
34135;DHT22;20410;55.578;12.968;2023-04-15T02:13:08;8.20;86.50
34135;DHT22;20410;55.578;12.968;2023-04-15T02:15:35;8.20;86.30
34135;DHT22;20410;55.578;12.968;2023-04-15T02:18:01;8.20;86.80
34135;DHT22;20410;55.578;12.968;2023-04-15T02:20:27;8.20;86.10
34135;DHT22;20410;55.578;12.968;2023-04-15T02:22:54;8.10;85.40
34135;DHT22;20410;55.578;12.968;2023-04-15T02:25:21;8.10;84.60
34135;DHT22;20410;55.578;12.968;2023-04-15T02:27:46;8.20;84.60
34135;DHT22;20410;55.578;12.968;2023-04-15T02:30:12;8.20;79.80
34135;DHT22;20410;55.578;12.968;2023-04-15T02:32:39;8.20;75.70
34135;DHT22;20410;55.578;12.968;2023-04-15T02:35:06;8.20;71.60
34135;DHT22;20410;55.578;12.968;2023-04-15T02:37:35;8.20;72.10
34135;DHT22;20410;55.578;12.968;2023-04-15T02:40:09;8.20;70.90
34135;DHT22;20410;55.578;12.968;2023-04-15T02:42:38;8.10;72.80
34135;DHT22;20410;55.578;12.968;2023-04-15T02:45:05;8.10;73.80
34135;DHT22;20410;55.578;12.968;2023-04-15T02:47:31;8.10;74.50
34135;DHT22;20410;55.578;12.968;2023-04-15T02:49:57;8.10;73.90
34135;DHT22;20410;55.578;12.968;2023-04-15T02:52:24;8.10;70.40
34135;DHT22;20410;55.578;12.968;2023-04-15T02:54:50;8.10;71.30
34135;DHT22;20410;55.578;12.968;2023-04-15T02:57:16;8.10;70.30
34135;DHT22;20410;55.578;12.968;2023-04-15T02:59:41;8.10;69.50
34135;DHT22;20410;55.578;12.968;2023-04-15T03:02:07;8.10;68.30
34135;DHT22;20410;55.578;12.968;2023-04-15T03:04:33;8.00;67.60
34135;DHT22;20410;55.578;12.968;2023-04-15T03:06:59;8.00;67.20
34135;DHT22;20410;55.578;12.968;2023-04-15T03:09:25;8.00;67.10
34135;DHT22;20410;55.578;12.968;2023-04-15T03:11:51;8.00;67.20
34135;DHT22;20410;55.578;12.968;2023-04-15T03:14:18;8.00;68.90
34135;DHT22;20410;55.578;12.968;2023-04-15T03:16:44;8.00;71.20
34135;DHT22;20410;55.578;12.968;2023-04-15T03:19:10;8.00;71.20
34135;DHT22;20410;55.578;12.968;2023-04-15T03:21:35;8.00;68.90
34135;DHT22;20410;55.578;12.968;2023-04-15T03:24:01;8.10;64.80
34135;DHT22;20410;55.578;12.968;2023-04-15T03:26:30;8.00;67.80
34135;DHT22;20410;55.578;12.968;2023-04-15T03:28:56;8.10;67.10
34135;DHT22;20410;55.578;12.968;2023-04-15T03:31:22;8.10;68.20
34135;DHT22;20410;55.578;12.968;2023-04-15T03:33:48;8.10;68.10
34135;DHT22;20410;55.578;12.968;2023-04-15T03:36:13;8.10;66.00
34135;DHT22;20410;55.578;12.968;2023-04-15T03:38:39;8.20;64.60
34135;DHT22;20410;55.578;12.968;2023-04-15T03:41:05;8.20;58.90
34135;DHT22;20410;55.578;12.968;2023-04-15T03:43:30;8.20;52.70
34135;DHT22;20410;55.578;12.968;2023-04-15T03:45:56;8.30;50.80
34135;DHT22;20410;55.578;12.968;2023-04-15T03:48:21;8.30;49.70
34135;DHT22;20410;55.578;12.968;2023-04-15T03:50:47;8.30;46.40
34135;DHT22;20410;55.578;12.968;2023-04-15T03:53:13;8.30;47.40
34135;DHT22;20410;55.578;12.968;2023-04-15T03:55:39;8.40;45.30
34135;DHT22;20410;55.578;12.968;2023-04-15T03:58:04;8.30;40.30
34135;DHT22;20410;55.578;12.968;2023-04-15T04:00:30;8.40;40.60
34135;DHT22;20410;55.578;12.968;2023-04-15T04:02:55;8.30;40.40
34135;DHT22;20410;55.578;12.968;2023-04-15T04:05:21;8.40;42.10
34135;DHT22;20410;55.578;12.968;2023-04-15T04:07:47;8.30;40.00
34135;DHT22;20410;55.578;12.968;2023-04-15T04:10:12;8.40;39.70
34135;DHT22;20410;55.578;12.968;2023-04-15T04:12:38;8.30;41.70
34135;DHT22;20410;55.578;12.968;2023-04-15T04:15:04;8.40;37.60
34135;DHT22;20410;55.578;12.968;2023-04-15T04:17:29;8.40;37.30
34135;DHT22;20410;55.578;12.968;2023-04-15T04:19:55;8.40;37.00
34135;DHT22;20410;55.578;12.968;2023-04-15T04:22:24;8.40;36.70
34135;DHT22;20410;55.578;12.968;2023-04-15T04:24:50;8.30;36.40
34135;DHT22;20410;55.578;12.968;2023-04-15T04:27:15;8.30;37.70
34135;DHT22;20410;55.578;12.968;2023-04-15T04:29:41;8.40;38.70
34135;DHT22;20410;55.578;12.968;2023-04-15T04:32:06;8.40;31.80
34135;DHT22;20410;55.578;12.968;2023-04-15T04:34:32;8.30;33.30
34135;DHT22;20410;55.578;12.968;2023-04-15T04:36:58;8.30;35.00
34135;DHT22;20410;55.578;12.968;2023-04-15T04:39:23;8.40;35.00
34135;DHT22;20410;55.578;12.968;2023-04-15T04:41:49;8.40;31.50
34135;DHT22;20410;55.578;12.968;2023-04-15T04:44:16;8.40;32.80
34135;DHT22;20410;55.578;12.968;2023-04-15T04:46:42;8.30;28.70
34135;DHT22;20410;55.578;12.968;2023-04-15T04:49:07;8.40;33.60
34135;DHT22;20410;55.578;12.968;2023-04-15T04:51:33;8.40;32.90
34135;DHT22;20410;55.578;12.968;2023-04-15T04:53:59;8.40;28.20
34135;DHT22;20410;55.578;12.968;2023-04-15T04:56:24;8.40;29.80
34135;DHT22;20410;55.578;12.968;2023-04-15T04:58:50;8.40;32.80
34135;DHT22;20410;55.578;12.968;2023-04-15T05:01:16;8.40;30.00
34135;DHT22;20410;55.578;12.968;2023-04-15T05:03:42;8.50;26.40
34135;DHT22;20410;55.578;12.968;2023-04-15T05:06:07;8.50;27.80
34135;DHT22;20410;55.578;12.968;2023-04-15T05:08:33;8.50;28.60
34135;DHT22;20410;55.578;12.968;2023-04-15T05:10:58;8.50;28.70
34135;DHT22;20410;55.578;12.968;2023-04-15T05:13:24;8.50;26.90
34135;DHT22;20410;55.578;12.968;2023-04-15T05:15:50;8.60;22.20
34135;DHT22;20410;55.578;12.968;2023-04-15T05:18:16;8.60;16.90
34135;DHT22;20410;55.578;12.968;2023-04-15T05:20:41;8.70;18.20
34135;DHT22;20410;55.578;12.968;2023-04-15T05:23:07;8.70;18.90
34135;DHT22;20410;55.578;12.968;2023-04-15T05:25:32;8.70;15.80
34135;DHT22;20410;55.578;12.968;2023-04-15T05:27:58;8.80;16.90
34135;DHT22;20410;55.578;12.968;2023-04-15T05:30:23;8.90;13.00
34135;DHT22;20410;55.578;12.968;2023-04-15T05:32:49;8.90;6.70
34135;DHT22;20410;55.578;12.968;2023-04-15T05:35:15;8.90;5.20
34135;DHT22;20410;55.578;12.968;2023-04-15T05:37:40;9.00;1.00
34135;DHT22;20410;55.578;12.968;2023-04-15T05:40:06;9.00;1.00
34135;DHT22;20410;55.578;12.968;2023-04-15T05:42:34;9.20;1.00
34135;DHT22;20410;55.578;12.968;2023-04-15T05:44:59;9.10;1.00
34135;DHT22;20410;55.578;12.968;2023-04-15T05:47:25;9.20;1.00
34135;DHT22;20410;55.578;12.968;2023-04-15T05:49:51;9.20;1.00
34135;DHT22;20410;55.578;12.968;2023-04-15T05:52:17;9.30;1.00
34135;DHT22;20410;55.578;12.968;2023-04-15T05:54:42;9.30;1.00
34135;DHT22;20410;55.578;12.968;2023-04-15T05:57:08;9.30;1.00
34135;DHT22;20410;55.578;12.968;2023-04-15T05:59:33;9.30;1.00
34135;DHT22;20410;55.578;12.968;2023-04-15T06:01:59;9.30;1.00
34135;DHT22;20410;55.578;12.968;2023-04-15T06:04:25;9.30;1.00
34135;DHT22;20410;55.578;12.968;2023-04-15T06:06:50;9.30;1.00
34135;DHT22;20410;55.578;12.968;2023-04-15T06:09:16;9.20;1.00
34135;DHT22;20410;55.578;12.968;2023-04-15T06:11:42;9.30;1.00
34135;DHT22;20410;55.578;12.968;2023-04-15T06:14:08;9.20;1.00
34135;DHT22;20410;55.578;12.968;2023-04-15T06:16:34;9.20;1.00
34135;DHT22;20410;55.578;12.968;2023-04-15T06:19:00;9.30;1.00
34135;DHT22;20410;55.578;12.968;2023-04-15T06:21:26;9.30;1.00
34135;DHT22;20410;55.578;12.968;2023-04-15T06:23:52;9.30;1.00
34135;DHT22;20410;55.578;12.968;2023-04-15T06:26:17;9.30;1.00
34135;DHT22;20410;55.578;12.968;2023-04-15T06:28:43;9.40;1.00
34135;DHT22;20410;55.578;12.968;2023-04-15T06:31:09;9.50;1.00
34135;DHT22;20410;55.578;12.968;2023-04-15T06:33:34;9.50;1.00
34135;DHT22;20410;55.578;12.968;2023-04-15T06:36:00;9.50;1.00
34135;DHT22;20410;55.578;12.968;2023-04-15T06:38:26;9.50;1.00
34135;DHT22;20410;55.578;12.968;2023-04-15T06:40:52;9.50;1.00
34135;DHT22;20410;55.578;12.968;2023-04-15T06:43:17;9.50;1.00
34135;DHT22;20410;55.578;12.968;2023-04-15T06:45:44;9.50;1.00
34135;DHT22;20410;55.578;12.968;2023-04-15T06:48:10;9.50;1.00
34135;DHT22;20410;55.578;12.968;2023-04-15T06:50:37;9.50;1.00
34135;DHT22;20410;55.578;12.968;2023-04-15T06:53:02;9.50;1.00
34135;DHT22;20410;55.578;12.968;2023-04-15T06:55:28;9.50;1.00
34135;DHT22;20410;55.578;12.968;2023-04-15T06:57:54;9.50;1.00
34135;DHT22;20410;55.578;12.968;2023-04-15T07:00:19;9.50;1.00
34135;DHT22;20410;55.578;12.968;2023-04-15T07:02:45;9.50;1.00
34135;DHT22;20410;55.578;12.968;2023-04-15T07:05:11;9.70;1.00
34135;DHT22;20410;55.578;12.968;2023-04-15T07:07:37;9.70;1.00
34135;DHT22;20410;55.578;12.968;2023-04-15T07:10:02;9.70;1.00
34135;DHT22;20410;55.578;12.968;2023-04-15T07:12:28;9.70;1.00
34135;DHT22;20410;55.578;12.968;2023-04-15T07:14:54;9.90;1.00
34135;DHT22;20410;55.578;12.968;2023-04-15T07:17:20;10.00;1.00
34135;DHT22;20410;55.578;12.968;2023-04-15T07:19:45;10.00;1.00
34135;DHT22;20410;55.578;12.968;2023-04-15T07:22:11;10.20;1.00
34135;DHT22;20410;55.578;12.968;2023-04-15T07:24:37;10.40;1.00
34135;DHT22;20410;55.578;12.968;2023-04-15T07:27:03;10.40;1.00
34135;DHT22;20410;55.578;12.968;2023-04-15T07:29:28;10.50;1.00
34135;DHT22;20410;55.578;12.968;2023-04-15T07:31:54;10.60;1.00
34135;DHT22;20410;55.578;12.968;2023-04-15T07:34:21;10.60;1.00
34135;DHT22;20410;55.578;12.968;2023-04-15T07:36:47;10.60;1.00
34135;DHT22;20410;55.578;12.968;2023-04-15T07:39:17;10.60;1.00
34135;DHT22;20410;55.578;12.968;2023-04-15T07:41:42;10.70;1.00
34135;DHT22;20410;55.578;12.968;2023-04-15T07:44:08;10.80;1.00
34135;DHT22;20410;55.578;12.968;2023-04-15T07:46:33;11.00;1.00
34135;DHT22;20410;55.578;12.968;2023-04-15T07:48:59;11.10;1.00
34135;DHT22;20410;55.578;12.968;2023-04-15T07:51:25;11.10;1.00
34135;DHT22;20410;55.578;12.968;2023-04-15T07:53:51;11.20;1.00
34135;DHT22;20410;55.578;12.968;2023-04-15T07:56:17;11.30;1.00
34135;DHT22;20410;55.578;12.968;2023-04-15T07:58:42;11.60;1.00
34135;DHT22;20410;55.578;12.968;2023-04-15T08:01:08;11.50;1.00
34135;DHT22;20410;55.578;12.968;2023-04-15T08:03:34;11.50;1.00
34135;DHT22;20410;55.578;12.968;2023-04-15T08:05:59;11.50;1.00
34135;DHT22;20410;55.578;12.968;2023-04-15T08:08:25;11.50;1.00
34135;DHT22;20410;55.578;12.968;2023-04-15T08:10:50;11.60;1.00
34135;DHT22;20410;55.578;12.968;2023-04-15T08:13:17;11.60;1.00
34135;DHT22;20410;55.578;12.968;2023-04-15T08:15:42;11.80;1.00
34135;DHT22;20410;55.578;12.968;2023-04-15T08:18:08;11.90;1.00
34135;DHT22;20410;55.578;12.968;2023-04-15T08:20:33;12.00;1.00
34135;DHT22;20410;55.578;12.968;2023-04-15T08:22:59;12.10;1.00
34135;DHT22;20410;55.578;12.968;2023-04-15T08:25:25;12.20;1.00
34135;DHT22;20410;55.578;12.968;2023-04-15T08:27:54;12.10;1.00
34135;DHT22;20410;55.578;12.968;2023-04-15T08:30:19;12.00;1.00
34135;DHT22;20410;55.578;12.968;2023-04-15T08:32:45;12.10;1.00
34135;DHT22;20410;55.578;12.968;2023-04-15T08:35:12;12.30;1.00
34135;DHT22;20410;55.578;12.968;2023-04-15T08:37:37;12.40;1.00
34135;DHT22;20410;55.578;12.968;2023-04-15T08:40:03;12.40;1.00
34135;DHT22;20410;55.578;12.968;2023-04-15T08:42:36;12.50;1.00
34135;DHT22;20410;55.578;12.968;2023-04-15T08:45:03;12.20;1.00
34135;DHT22;20410;55.578;12.968;2023-04-15T08:47:29;12.30;1.00
34135;DHT22;20410;55.578;12.968;2023-04-15T08:49:58;12.40;1.00
34135;DHT22;20410;55.578;12.968;2023-04-15T08:52:29;12.40;1.00
34135;DHT22;20410;55.578;12.968;2023-04-15T08:54:57;12.50;1.00
34135;DHT22;20410;55.578;12.968;2023-04-15T08:57:30;12.30;1.00
34135;DHT22;20410;55.578;12.968;2023-04-15T08:59:57;12.40;1.00
34135;DHT22;20410;55.578;12.968;2023-04-15T09:02:24;12.60;1.00
34135;DHT22;20410;55.578;12.968;2023-04-15T09:04:51;12.70;1.00
34135;DHT22;20410;55.578;12.968;2023-04-15T09:07:17;12.70;1.00
34135;DHT22;20410;55.578;12.968;2023-04-15T09:09:42;12.70;1.00
34135;DHT22;20410;55.578;12.968;2023-04-15T09:12:09;12.70;1.00
34135;DHT22;20410;55.578;12.968;2023-04-15T09:14:35;12.60;1.00
34135;DHT22;20410;55.578;12.968;2023-04-15T09:17:03;12.80;1.00
34135;DHT22;20410;55.578;12.968;2023-04-15T09:19:29;12.80;1.00
34135;DHT22;20410;55.578;12.968;2023-04-15T09:21:57;12.90;1.00
34135;DHT22;20410;55.578;12.968;2023-04-15T09:24:23;13.10;1.00
34135;DHT22;20410;55.578;12.968;2023-04-15T09:26:52;13.00;1.00
34135;DHT22;20410;55.578;12.968;2023-04-15T09:29:18;13.10;1.00
34135;DHT22;20410;55.578;12.968;2023-04-15T09:31:44;13.20;1.00
34135;DHT22;20410;55.578;12.968;2023-04-15T09:34:10;13.30;1.00
34135;DHT22;20410;55.578;12.968;2023-04-15T09:36:55;13.50;1.00
34135;DHT22;20410;55.578;12.968;2023-04-15T09:39:21;13.40;1.00
34135;DHT22;20410;55.578;12.968;2023-04-15T09:41:55;13.30;1.00
34135;DHT22;20410;55.578;12.968;2023-04-15T09:44:28;13.50;1.00
34135;DHT22;20410;55.578;12.968;2023-04-15T09:46:53;13.60;1.00
34135;DHT22;20410;55.578;12.968;2023-04-15T09:49:19;13.60;1.00
34135;DHT22;20410;55.578;12.968;2023-04-15T09:51:45;13.50;1.00
34135;DHT22;20410;55.578;12.968;2023-04-15T09:54:11;13.60;1.00
34135;DHT22;20410;55.578;12.968;2023-04-15T09:56:38;13.70;1.00
34135;DHT22;20410;55.578;12.968;2023-04-15T09:59:07;13.60;1.00
34135;DHT22;20410;55.578;12.968;2023-04-15T10:01:33;13.60;1.00
34135;DHT22;20410;55.578;12.968;2023-04-15T10:04:02;13.50;1.00
34135;DHT22;20410;55.578;12.968;2023-04-15T10:06:28;13.50;1.00
34135;DHT22;20410;55.578;12.968;2023-04-15T10:08:56;13.60;1.00
34135;DHT22;20410;55.578;12.968;2023-04-15T10:11:22;13.60;1.00
34135;DHT22;20410;55.578;12.968;2023-04-15T10:13:49;13.50;1.00
34135;DHT22;20410;55.578;12.968;2023-04-15T10:16:15;13.70;1.00
34135;DHT22;20410;55.578;12.968;2023-04-15T10:18:47;13.80;1.00
34135;DHT22;20410;55.578;12.968;2023-04-15T10:21:15;13.90;1.00
34135;DHT22;20410;55.578;12.968;2023-04-15T10:23:44;13.80;1.00
34135;DHT22;20410;55.578;12.968;2023-04-15T10:26:10;13.60;1.00
34135;DHT22;20410;55.578;12.968;2023-04-15T10:28:37;13.60;1.00
34135;DHT22;20410;55.578;12.968;2023-04-15T10:31:04;13.70;1.00
34135;DHT22;20410;55.578;12.968;2023-04-15T10:33:30;13.70;1.00
34135;DHT22;20410;55.578;12.968;2023-04-15T10:35:56;13.50;1.00
34135;DHT22;20410;55.578;12.968;2023-04-15T10:38:38;13.60;1.00
34135;DHT22;20410;55.578;12.968;2023-04-15T10:41:24;13.60;1.00
34135;DHT22;20410;55.578;12.968;2023-04-15T10:44:03;13.80;1.00
34135;DHT22;20410;55.578;12.968;2023-04-15T10:46:43;14.10;1.00
34135;DHT22;20410;55.578;12.968;2023-04-15T10:49:16;14.20;1.00
34135;DHT22;20410;55.578;12.968;2023-04-15T10:51:51;14.00;1.00
34135;DHT22;20410;55.578;12.968;2023-04-15T11:05:18;14.00;1.00
34135;DHT22;20410;55.578;12.968;2023-04-15T11:07:54;14.10;1.00
34135;DHT22;20410;55.578;12.968;2023-04-15T11:13:03;14.30;1.00
34135;DHT22;20410;55.578;12.968;2023-04-15T11:18:20;13.80;1.00
34135;DHT22;20410;55.578;12.968;2023-04-15T11:20:50;13.80;1.00
34135;DHT22;20410;55.578;12.968;2023-04-15T11:23:26;13.70;1.00
34135;DHT22;20410;55.578;12.968;2023-04-15T11:25:54;13.70;1.00
34135;DHT22;20410;55.578;12.968;2023-04-15T11:28:19;13.90;1.00
34135;DHT22;20410;55.578;12.968;2023-04-15T11:30:45;13.80;1.00
34135;DHT22;20410;55.578;12.968;2023-04-15T11:33:11;13.70;1.00
34135;DHT22;20410;55.578;12.968;2023-04-15T11:35:37;13.50;1.00
34135;DHT22;20410;55.578;12.968;2023-04-15T11:38:09;13.60;1.00
34135;DHT22;20410;55.578;12.968;2023-04-15T11:40:36;13.80;1.00
34135;DHT22;20410;55.578;12.968;2023-04-15T11:43:10;13.90;1.00
34135;DHT22;20410;55.578;12.968;2023-04-15T11:45:47;13.90;1.00
34135;DHT22;20410;55.578;12.968;2023-04-15T11:48:13;14.10;1.00
34135;DHT22;20410;55.578;12.968;2023-04-15T11:50:39;13.80;1.00
34135;DHT22;20410;55.578;12.968;2023-04-15T11:53:07;13.90;1.00
34135;DHT22;20410;55.578;12.968;2023-04-15T11:55:47;13.90;1.00
34135;DHT22;20410;55.578;12.968;2023-04-15T12:00:39;14.00;1.00
34135;DHT22;20410;55.578;12.968;2023-04-15T12:06:10;13.90;1.00
34135;DHT22;20410;55.578;12.968;2023-04-15T12:09:11;13.80;1.00
34135;DHT22;20410;55.578;12.968;2023-04-15T12:14:23;13.60;1.00
34135;DHT22;20410;55.578;12.968;2023-04-15T12:16:51;13.40;1.00
34135;DHT22;20410;55.578;12.968;2023-04-15T12:21:48;13.60;1.00
34135;DHT22;20410;55.578;12.968;2023-04-15T12:24:14;13.50;1.00
34135;DHT22;20410;55.578;12.968;2023-04-15T12:29:10;13.50;1.00
34135;DHT22;20410;55.578;12.968;2023-04-15T12:31:38;13.50;1.00
34135;DHT22;20410;55.578;12.968;2023-04-15T12:34:10;13.10;1.00
34135;DHT22;20410;55.578;12.968;2023-04-15T12:36:36;13.10;1.00
34135;DHT22;20410;55.578;12.968;2023-04-15T12:39:05;13.10;1.00
34135;DHT22;20410;55.578;12.968;2023-04-15T12:41:31;13.00;1.00
34135;DHT22;20410;55.578;12.968;2023-04-15T12:43:57;13.20;1.00
34135;DHT22;20410;55.578;12.968;2023-04-15T12:46:23;13.40;1.00
34135;DHT22;20410;55.578;12.968;2023-04-15T12:48:49;13.10;1.00
34135;DHT22;20410;55.578;12.968;2023-04-15T12:51:16;13.10;1.00
34135;DHT22;20410;55.578;12.968;2023-04-15T12:53:41;13.30;1.00
34135;DHT22;20410;55.578;12.968;2023-04-15T12:56:07;13.10;1.00
34135;DHT22;20410;55.578;12.968;2023-04-15T12:58:32;13.10;1.00
34135;DHT22;20410;55.578;12.968;2023-04-15T13:00:58;12.90;1.00
34135;DHT22;20410;55.578;12.968;2023-04-15T13:03:24;12.80;1.00
34135;DHT22;20410;55.578;12.968;2023-04-15T13:05:49;13.00;1.00
34135;DHT22;20410;55.578;12.968;2023-04-15T13:08:15;13.00;1.00
34135;DHT22;20410;55.578;12.968;2023-04-15T13:10:41;12.70;1.00
34135;DHT22;20410;55.578;12.968;2023-04-15T13:13:07;12.80;1.00
34135;DHT22;20410;55.578;12.968;2023-04-15T13:15:33;12.90;1.00
34135;DHT22;20410;55.578;12.968;2023-04-15T13:17:58;12.80;1.00
34135;DHT22;20410;55.578;12.968;2023-04-15T13:20:24;12.70;1.00
34135;DHT22;20410;55.578;12.968;2023-04-15T13:22:51;12.60;1.00
34135;DHT22;20410;55.578;12.968;2023-04-15T13:25:17;12.60;1.00
34135;DHT22;20410;55.578;12.968;2023-04-15T13:27:42;12.70;1.00
34135;DHT22;20410;55.578;12.968;2023-04-15T13:30:08;12.80;1.00
34135;DHT22;20410;55.578;12.968;2023-04-15T13:32:34;12.70;1.00
34135;DHT22;20410;55.578;12.968;2023-04-15T13:34:59;12.70;1.00
34135;DHT22;20410;55.578;12.968;2023-04-15T13:37:26;12.60;1.00
34135;DHT22;20410;55.578;12.968;2023-04-15T13:39:52;12.60;1.00
34135;DHT22;20410;55.578;12.968;2023-04-15T13:42:18;12.60;1.00
34135;DHT22;20410;55.578;12.968;2023-04-15T13:44:44;12.60;1.00
34135;DHT22;20410;55.578;12.968;2023-04-15T13:47:09;12.60;1.00
34135;DHT22;20410;55.578;12.968;2023-04-15T13:49:35;12.50;1.00
34135;DHT22;20410;55.578;12.968;2023-04-15T13:52:01;12.50;1.00
34135;DHT22;20410;55.578;12.968;2023-04-15T13:54:26;12.70;1.00
34135;DHT22;20410;55.578;12.968;2023-04-15T13:56:53;12.70;1.00
34135;DHT22;20410;55.578;12.968;2023-04-15T13:59:18;12.80;1.00
34135;DHT22;20410;55.578;12.968;2023-04-15T14:01:44;12.70;1.00
34135;DHT22;20410;55.578;12.968;2023-04-15T14:04:10;12.60;1.00
34135;DHT22;20410;55.578;12.968;2023-04-15T14:06:35;12.60;1.00
34135;DHT22;20410;55.578;12.968;2023-04-15T14:09:01;12.60;1.00
34135;DHT22;20410;55.578;12.968;2023-04-15T14:11:26;12.60;1.00
34135;DHT22;20410;55.578;12.968;2023-04-15T14:13:52;12.60;1.00
34135;DHT22;20410;55.578;12.968;2023-04-15T14:16:17;12.70;1.00
34135;DHT22;20410;55.578;12.968;2023-04-15T14:18:43;12.70;1.00
34135;DHT22;20410;55.578;12.968;2023-04-15T14:21:09;12.60;1.00
34135;DHT22;20410;55.578;12.968;2023-04-15T14:23:35;12.50;1.00
34135;DHT22;20410;55.578;12.968;2023-04-15T14:26:00;12.40;1.00
34135;DHT22;20410;55.578;12.968;2023-04-15T14:28:26;12.40;1.00
34135;DHT22;20410;55.578;12.968;2023-04-15T14:30:51;12.30;1.00
34135;DHT22;20410;55.578;12.968;2023-04-15T14:33:18;12.40;1.00
34135;DHT22;20410;55.578;12.968;2023-04-15T14:35:43;12.60;1.00
34135;DHT22;20410;55.578;12.968;2023-04-15T14:38:09;12.70;1.00
34135;DHT22;20410;55.578;12.968;2023-04-15T14:40:35;12.70;1.00
34135;DHT22;20410;55.578;12.968;2023-04-15T14:43:01;12.70;1.00
34135;DHT22;20410;55.578;12.968;2023-04-15T14:45:27;12.70;1.00
34135;DHT22;20410;55.578;12.968;2023-04-15T14:47:52;12.70;1.00
34135;DHT22;20410;55.578;12.968;2023-04-15T14:50:18;12.70;1.00
34135;DHT22;20410;55.578;12.968;2023-04-15T14:52:44;12.60;1.00
34135;DHT22;20410;55.578;12.968;2023-04-15T14:55:10;12.60;1.00
34135;DHT22;20410;55.578;12.968;2023-04-15T14:57:37;12.70;1.00
34135;DHT22;20410;55.578;12.968;2023-04-15T15:00:04;12.70;1.00
34135;DHT22;20410;55.578;12.968;2023-04-15T15:02:32;12.70;1.00
34135;DHT22;20410;55.578;12.968;2023-04-15T15:04:59;12.60;1.00
34135;DHT22;20410;55.578;12.968;2023-04-15T15:07:25;12.70;1.00
34135;DHT22;20410;55.578;12.968;2023-04-15T15:09:50;12.70;1.00
34135;DHT22;20410;55.578;12.968;2023-04-15T15:12:16;12.70;1.00
34135;DHT22;20410;55.578;12.968;2023-04-15T15:14:42;12.60;1.00
34135;DHT22;20410;55.578;12.968;2023-04-15T15:17:08;12.60;1.00
34135;DHT22;20410;55.578;12.968;2023-04-15T15:19:34;12.70;1.00
34135;DHT22;20410;55.578;12.968;2023-04-15T15:22:00;12.60;1.00
34135;DHT22;20410;55.578;12.968;2023-04-15T15:24:26;12.60;1.00
34135;DHT22;20410;55.578;12.968;2023-04-15T15:26:51;12.60;1.00
34135;DHT22;20410;55.578;12.968;2023-04-15T15:29:17;12.60;1.00
34135;DHT22;20410;55.578;12.968;2023-04-15T15:31:42;12.60;1.00
34135;DHT22;20410;55.578;12.968;2023-04-15T15:34:08;12.60;1.00
34135;DHT22;20410;55.578;12.968;2023-04-15T15:36:33;12.50;1.00
34135;DHT22;20410;55.578;12.968;2023-04-15T15:38:59;12.50;1.00
34135;DHT22;20410;55.578;12.968;2023-04-15T15:41:25;12.40;1.00
34135;DHT22;20410;55.578;12.968;2023-04-15T15:43:51;12.30;1.00
34135;DHT22;20410;55.578;12.968;2023-04-15T15:46:17;12.30;1.00
34135;DHT22;20410;55.578;12.968;2023-04-15T15:48:43;12.40;1.00
34135;DHT22;20410;55.578;12.968;2023-04-15T15:51:09;12.30;1.00
34135;DHT22;20410;55.578;12.968;2023-04-15T15:53:34;12.20;1.00
34135;DHT22;20410;55.578;12.968;2023-04-15T15:56:00;12.00;1.00
34135;DHT22;20410;55.578;12.968;2023-04-15T15:58:28;11.90;1.00